sensor_id;sensor_type;location;lat;lon;timestamp;temperature;humidity
67502;SHT30;54349;52.528;19.760;2022-12-07T00:01:44;22.93;39.98
67502;SHT30;54349;52.528;19.760;2022-12-07T00:04:15;22.89;39.92
67502;SHT30;54349;52.528;19.760;2022-12-07T00:06:46;22.85;39.86
67502;SHT30;54349;52.528;19.760;2022-12-07T00:09:19;22.80;39.85
67502;SHT30;54349;52.528;19.760;2022-12-07T00:11:51;22.76;39.76
67502;SHT30;54349;52.528;19.760;2022-12-07T00:14:19;22.72;39.72
67502;SHT30;54349;52.528;19.760;2022-12-07T00:16:48;22.66;39.60
67502;SHT30;54349;52.528;19.760;2022-12-07T00:19:19;22.62;39.62
67502;SHT30;54349;52.528;19.760;2022-12-07T00:21:47;22.58;39.63
67502;SHT30;54349;52.528;19.760;2022-12-07T00:24:15;22.54;39.56
67502;SHT30;54349;52.528;19.760;2022-12-07T00:26:44;22.49;39.47
67502;SHT30;54349;52.528;19.760;2022-12-07T00:29:15;22.45;39.48
67502;SHT30;54349;52.528;19.760;2022-12-07T00:31:47;22.42;39.46
67502;SHT30;54349;52.528;19.760;2022-12-07T00:34:17;22.38;39.43
67502;SHT30;54349;52.528;19.760;2022-12-07T00:36:48;22.34;39.41
67502;SHT30;54349;52.528;19.760;2022-12-07T00:39:17;22.31;39.36
67502;SHT30;54349;52.528;19.760;2022-12-07T00:41:45;22.25;39.34
67502;SHT30;54349;52.528;19.760;2022-12-07T00:44:13;22.21;39.38
67502;SHT30;54349;52.528;19.760;2022-12-07T00:46:41;22.19;39.31
67502;SHT30;54349;52.528;19.760;2022-12-07T00:49:09;22.17;39.30
67502;SHT30;54349;52.528;19.760;2022-12-07T00:51:37;22.14;39.32
67502;SHT30;54349;52.528;19.760;2022-12-07T00:54:05;22.11;39.27
67502;SHT30;54349;52.528;19.760;2022-12-07T00:56:33;22.09;39.25
67502;SHT30;54349;52.528;19.760;2022-12-07T00:59:02;22.06;39.22
67502;SHT30;54349;52.528;19.760;2022-12-07T01:01:33;22.03;39.21
67502;SHT30;54349;52.528;19.760;2022-12-07T01:04:04;21.99;39.27
67502;SHT30;54349;52.528;19.760;2022-12-07T01:06:33;21.98;39.20
67502;SHT30;54349;52.528;19.760;2022-12-07T01:09:02;21.93;39.14
67502;SHT30;54349;52.528;19.760;2022-12-07T01:11:32;21.91;39.13
67502;SHT30;54349;52.528;19.760;2022-12-07T01:14:00;21.88;39.15
67502;SHT30;54349;52.528;19.760;2022-12-07T01:16:29;21.85;39.13
67502;SHT30;54349;52.528;19.760;2022-12-07T01:19:00;21.83;39.15
67502;SHT30;54349;52.528;19.760;2022-12-07T01:21:29;21.82;39.15
67502;SHT30;54349;52.528;19.760;2022-12-07T01:24:03;21.80;39.06
67502;SHT30;54349;52.528;19.760;2022-12-07T01:26:34;21.77;39.09
67502;SHT30;54349;52.528;19.760;2022-12-07T01:29:02;21.75;39.06
67502;SHT30;54349;52.528;19.760;2022-12-07T01:31:31;21.72;39.07
67502;SHT30;54349;52.528;19.760;2022-12-07T01:33:59;21.70;39.03
67502;SHT30;54349;52.528;19.760;2022-12-07T01:36:32;21.67;39.04
67502;SHT30;54349;52.528;19.760;2022-12-07T01:39:04;21.66;38.96
67502;SHT30;54349;52.528;19.760;2022-12-07T01:41:36;21.63;39.01
67502;SHT30;54349;52.528;19.760;2022-12-07T01:44:24;21.59;38.91
67502;SHT30;54349;52.528;19.760;2022-12-07T01:47:01;21.55;38.92
67502;SHT30;54349;52.528;19.760;2022-12-07T01:49:33;21.53;38.93
67502;SHT30;54349;52.528;19.760;2022-12-07T01:54:57;21.49;38.86
67502;SHT30;54349;52.528;19.760;2022-12-07T01:57:31;21.45;38.86
67502;SHT30;54349;52.528;19.760;2022-12-07T02:00:03;21.42;38.82
67502;SHT30;54349;52.528;19.760;2022-12-07T02:02:57;21.40;38.89
67502;SHT30;54349;52.528;19.760;2022-12-07T02:05:43;21.36;38.83
67502;SHT30;54349;52.528;19.760;2022-12-07T02:08:13;21.34;38.85
67502;SHT30;54349;52.528;19.760;2022-12-07T02:10:42;21.33;38.85
67502;SHT30;54349;52.528;19.760;2022-12-07T02:13:12;21.31;38.80
67502;SHT30;54349;52.528;19.760;2022-12-07T02:24:10;21.21;38.82
67502;SHT30;54349;52.528;19.760;2022-12-07T02:27:10;21.19;38.83
67502;SHT30;54349;52.528;19.760;2022-12-07T02:30:05;21.17;38.72
67502;SHT30;54349;52.528;19.760;2022-12-07T02:35:27;21.11;38.72
67502;SHT30;54349;52.528;19.760;2022-12-07T02:38:16;21.10;38.73
67502;SHT30;54349;52.528;19.760;2022-12-07T02:40:54;21.08;38.75
67502;SHT30;54349;52.528;19.760;2022-12-07T02:43:31;21.07;38.68
67502;SHT30;54349;52.528;19.760;2022-12-07T02:46:30;21.05;38.69
67502;SHT30;54349;52.528;19.760;2022-12-07T02:49:03;21.01;38.67
67502;SHT30;54349;52.528;19.760;2022-12-07T02:51:38;21.00;38.68
67502;SHT30;54349;52.528;19.760;2022-12-07T02:54:11;20.99;38.70
67502;SHT30;54349;52.528;19.760;2022-12-07T03:08:04;20.88;38.60
67502;SHT30;54349;52.528;19.760;2022-12-07T03:13:54;20.85;38.61
67502;SHT30;54349;52.528;19.760;2022-12-07T03:16:33;20.84;38.57
67502;SHT30;54349;52.528;19.760;2022-12-07T03:19:11;20.81;38.50
67502;SHT30;54349;52.528;19.760;2022-12-07T03:21:49;20.79;38.52
67502;SHT30;54349;52.528;19.760;2022-12-07T03:24:45;20.78;38.51
67502;SHT30;54349;52.528;19.760;2022-12-07T03:27:21;20.75;38.49
67502;SHT30;54349;52.528;19.760;2022-12-07T03:29:56;20.74;38.53
67502;SHT30;54349;52.528;19.760;2022-12-07T03:35:22;20.71;38.47
67502;SHT30;54349;52.528;19.760;2022-12-07T03:38:13;20.70;38.55
67502;SHT30;54349;52.528;19.760;2022-12-07T03:43:33;20.65;38.49
67502;SHT30;54349;52.528;19.760;2022-12-07T03:55:11;20.58;38.53
67502;SHT30;54349;52.528;19.760;2022-12-07T03:57:51;20.57;38.53
67502;SHT30;54349;52.528;19.760;2022-12-07T04:00:25;20.57;38.50
67502;SHT30;54349;52.528;19.760;2022-12-07T04:02:54;20.55;38.39
67502;SHT30;54349;52.528;19.760;2022-12-07T04:05:23;20.53;38.45
67502;SHT30;54349;52.528;19.760;2022-12-07T04:07:52;20.52;38.44
67502;SHT30;54349;52.528;19.760;2022-12-07T04:10:21;20.50;38.34
67502;SHT30;54349;52.528;19.760;2022-12-07T04:12:49;20.48;38.34
67502;SHT30;54349;52.528;19.760;2022-12-07T04:15:17;20.45;38.32
67502;SHT30;54349;52.528;19.760;2022-12-07T04:17:45;20.44;38.36
67502;SHT30;54349;52.528;19.760;2022-12-07T04:20:13;20.42;38.36
67502;SHT30;54349;52.528;19.760;2022-12-07T04:22:41;20.42;38.39
67502;SHT30;54349;52.528;19.760;2022-12-07T04:25:10;20.40;38.39
67502;SHT30;54349;52.528;19.760;2022-12-07T04:27:38;20.40;38.30
67502;SHT30;54349;52.528;19.760;2022-12-07T04:30:06;20.37;38.35
67502;SHT30;54349;52.528;19.760;2022-12-07T04:32:37;20.33;38.25
67502;SHT30;54349;52.528;19.760;2022-12-07T04:35:05;20.30;38.26
67502;SHT30;54349;52.528;19.760;2022-12-07T04:37:34;20.29;38.25
67502;SHT30;54349;52.528;19.760;2022-12-07T04:40:02;20.28;38.19
67502;SHT30;54349;52.528;19.760;2022-12-07T04:42:31;20.30;38.18
67502;SHT30;54349;52.528;19.760;2022-12-07T04:44:59;20.36;38.20
67502;SHT30;54349;52.528;19.760;2022-12-07T04:47:28;20.42;38.08
67502;SHT30;54349;52.528;19.760;2022-12-07T04:49:56;20.50;38.00
67502;SHT30;54349;52.528;19.760;2022-12-07T04:52:24;20.61;37.90
67502;SHT30;54349;52.528;19.760;2022-12-07T04:54:52;20.70;37.72
67502;SHT30;54349;52.528;19.760;2022-12-07T04:57:20;20.76;37.65
67502;SHT30;54349;52.528;19.760;2022-12-07T04:59:48;20.84;37.50
67502;SHT30;54349;52.528;19.760;2022-12-07T05:02:16;20.89;37.41
67502;SHT30;54349;52.528;19.760;2022-12-07T05:04:44;20.93;37.37
67502;SHT30;54349;52.528;19.760;2022-12-07T05:07:12;20.98;37.30
67502;SHT30;54349;52.528;19.760;2022-12-07T05:09:40;21.03;37.22
67502;SHT30;54349;52.528;19.760;2022-12-07T05:12:08;21.08;37.11
67502;SHT30;54349;52.528;19.760;2022-12-07T05:14:36;21.12;37.10
67502;SHT30;54349;52.528;19.760;2022-12-07T05:17:04;21.18;37.03
67502;SHT30;54349;52.528;19.760;2022-12-07T05:19:32;21.23;36.97
67502;SHT30;54349;52.528;19.760;2022-12-07T05:22:00;21.27;36.87
67502;SHT30;54349;52.528;19.760;2022-12-07T05:24:28;21.29;36.88
67502;SHT30;54349;52.528;19.760;2022-12-07T05:26:56;21.32;36.81
67502;SHT30;54349;52.528;19.760;2022-12-07T05:29:24;21.35;36.82
67502;SHT30;54349;52.528;19.760;2022-12-07T05:31:52;21.37;36.73
67502;SHT30;54349;52.528;19.760;2022-12-07T05:34:20;21.40;36.74
67502;SHT30;54349;52.528;19.760;2022-12-07T05:36:48;21.42;36.70
67502;SHT30;54349;52.528;19.760;2022-12-07T05:39:17;21.44;36.79
67502;SHT30;54349;52.528;19.760;2022-12-07T05:41:45;21.50;36.72
67502;SHT30;54349;52.528;19.760;2022-12-07T05:44:32;21.57;36.75
67502;SHT30;54349;52.528;19.760;2022-12-07T05:47:00;21.68;36.65
67502;SHT30;54349;52.528;19.760;2022-12-07T05:49:28;21.72;36.50
67502;SHT30;54349;52.528;19.760;2022-12-07T05:51:56;21.68;36.46
67502;SHT30;54349;52.528;19.760;2022-12-07T05:54:25;21.66;36.51
67502;SHT30;54349;52.528;19.760;2022-12-07T05:56:53;21.65;36.48
67502;SHT30;54349;52.528;19.760;2022-12-07T05:59:22;21.64;36.49
67502;SHT30;54349;52.528;19.760;2022-12-07T06:02:04;21.63;36.49
67502;SHT30;54349;52.528;19.760;2022-12-07T06:04:39;21.64;36.46
67502;SHT30;54349;52.528;19.760;2022-12-07T06:07:12;21.64;36.45
67502;SHT30;54349;52.528;19.760;2022-12-07T06:09:42;21.61;36.40
67502;SHT30;54349;52.528;19.760;2022-12-07T06:12:11;21.59;36.41
67502;SHT30;54349;52.528;19.760;2022-12-07T06:14:59;21.58;36.45
67502;SHT30;54349;52.528;19.760;2022-12-07T06:17:28;21.57;36.44
67502;SHT30;54349;52.528;19.760;2022-12-07T06:19:56;21.56;36.42
67502;SHT30;54349;52.528;19.760;2022-12-07T06:22:24;21.58;36.54
67502;SHT30;54349;52.528;19.760;2022-12-07T06:24:52;21.66;36.53
67502;SHT30;54349;52.528;19.760;2022-12-07T06:27:21;21.69;36.44
67502;SHT30;54349;52.528;19.760;2022-12-07T06:29:49;21.68;36.38
67502;SHT30;54349;52.528;19.760;2022-12-07T06:32:16;21.69;36.43
67502;SHT30;54349;52.528;19.760;2022-12-07T06:34:45;21.71;36.38
67502;SHT30;54349;52.528;19.760;2022-12-07T06:37:15;21.71;36.27
67502;SHT30;54349;52.528;19.760;2022-12-07T06:39:43;21.69;36.34
67502;SHT30;54349;52.528;19.760;2022-12-07T06:42:11;21.70;36.34
67502;SHT30;54349;52.528;19.760;2022-12-07T06:44:39;21.69;36.36
67502;SHT30;54349;52.528;19.760;2022-12-07T06:47:08;21.71;36.30
67502;SHT30;54349;52.528;19.760;2022-12-07T06:49:57;21.70;36.25
67502;SHT30;54349;52.528;19.760;2022-12-07T06:52:26;21.70;36.27
67502;SHT30;54349;52.528;19.760;2022-12-07T06:54:54;21.69;36.28
67502;SHT30;54349;52.528;19.760;2022-12-07T06:57:22;21.70;36.24
67502;SHT30;54349;52.528;19.760;2022-12-07T06:59:50;21.69;36.27
67502;SHT30;54349;52.528;19.760;2022-12-07T07:02:18;21.69;36.26
67502;SHT30;54349;52.528;19.760;2022-12-07T07:04:46;21.69;36.22
67502;SHT30;54349;52.528;19.760;2022-12-07T07:07:14;21.70;36.24
67502;SHT30;54349;52.528;19.760;2022-12-07T07:09:42;21.71;36.18
67502;SHT30;54349;52.528;19.760;2022-12-07T07:12:10;21.74;36.78
67502;SHT30;54349;52.528;19.760;2022-12-07T07:14:39;21.80;37.50
67502;SHT30;54349;52.528;19.760;2022-12-07T07:17:07;21.86;38.17
67502;SHT30;54349;52.528;19.760;2022-12-07T07:19:36;21.87;38.72
67502;SHT30;54349;52.528;19.760;2022-12-07T07:22:06;21.87;39.15
67502;SHT30;54349;52.528;19.760;2022-12-07T07:24:35;21.89;39.38
67502;SHT30;54349;52.528;19.760;2022-12-07T07:27:03;21.94;39.54
67502;SHT30;54349;52.528;19.760;2022-12-07T07:29:32;21.96;39.67
67502;SHT30;54349;52.528;19.760;2022-12-07T07:32:00;21.96;39.93
67502;SHT30;54349;52.528;19.760;2022-12-07T07:34:34;22.00;40.07
67502;SHT30;54349;52.528;19.760;2022-12-07T07:37:03;22.06;40.13
67502;SHT30;54349;52.528;19.760;2022-12-07T07:39:32;22.10;40.06
67502;SHT30;54349;52.528;19.760;2022-12-07T07:42:04;22.09;39.98
67502;SHT30;54349;52.528;19.760;2022-12-07T07:44:36;22.11;40.19
67502;SHT30;54349;52.528;19.760;2022-12-07T07:47:07;22.13;40.17
67502;SHT30;54349;52.528;19.760;2022-12-07T07:49:37;22.13;40.26
67502;SHT30;54349;52.528;19.760;2022-12-07T07:52:14;22.14;40.20
67502;SHT30;54349;52.528;19.760;2022-12-07T07:54:43;22.13;40.21
67502;SHT30;54349;52.528;19.760;2022-12-07T07:57:11;22.15;40.25
67502;SHT30;54349;52.528;19.760;2022-12-07T07:59:40;22.17;40.22
67502;SHT30;54349;52.528;19.760;2022-12-07T08:02:12;22.18;40.23
67502;SHT30;54349;52.528;19.760;2022-12-07T08:04:45;22.20;40.22
67502;SHT30;54349;52.528;19.760;2022-12-07T08:07:15;22.23;40.22
67502;SHT30;54349;52.528;19.760;2022-12-07T08:09:44;22.23;40.07
67502;SHT30;54349;52.528;19.760;2022-12-07T08:12:13;22.20;40.14
67502;SHT30;54349;52.528;19.760;2022-12-07T08:14:42;22.23;40.15
67502;SHT30;54349;52.528;19.760;2022-12-07T08:17:11;22.25;40.16
67502;SHT30;54349;52.528;19.760;2022-12-07T08:19:41;22.25;40.22
67502;SHT30;54349;52.528;19.760;2022-12-07T08:22:09;22.25;40.20
67502;SHT30;54349;52.528;19.760;2022-12-07T08:24:38;22.25;40.24
67502;SHT30;54349;52.528;19.760;2022-12-07T08:27:07;22.27;40.30
67502;SHT30;54349;52.528;19.760;2022-12-07T08:29:36;22.27;40.26
67502;SHT30;54349;52.528;19.760;2022-12-07T08:32:05;22.26;40.29
67502;SHT30;54349;52.528;19.760;2022-12-07T08:34:36;22.27;40.16
67502;SHT30;54349;52.528;19.760;2022-12-07T08:37:05;22.25;40.20
67502;SHT30;54349;52.528;19.760;2022-12-07T08:39:34;22.24;40.18
67502;SHT30;54349;52.528;19.760;2022-12-07T08:42:03;22.23;40.20
67502;SHT30;54349;52.528;19.760;2022-12-07T08:44:32;22.23;40.32
67502;SHT30;54349;52.528;19.760;2022-12-07T08:47:02;22.26;40.32
67502;SHT30;54349;52.528;19.760;2022-12-07T08:49:38;22.28;40.21
67502;SHT30;54349;52.528;19.760;2022-12-07T08:52:11;22.27;40.25
67502;SHT30;54349;52.528;19.760;2022-12-07T08:54:39;22.31;40.23
67502;SHT30;54349;52.528;19.760;2022-12-07T08:57:10;22.34;40.22
67502;SHT30;54349;52.528;19.760;2022-12-07T08:59:40;22.35;40.12
67502;SHT30;54349;52.528;19.760;2022-12-07T09:02:08;22.35;40.07
67502;SHT30;54349;52.528;19.760;2022-12-07T09:04:38;22.35;40.12
67502;SHT30;54349;52.528;19.760;2022-12-07T09:07:07;22.38;40.24
67502;SHT30;54349;52.528;19.760;2022-12-07T09:09:35;22.40;40.58
67502;SHT30;54349;52.528;19.760;2022-12-07T09:12:04;22.42;40.33
67502;SHT30;54349;52.528;19.760;2022-12-07T09:14:33;22.41;40.30
67502;SHT30;54349;52.528;19.760;2022-12-07T09:17:07;22.42;40.21
67502;SHT30;54349;52.528;19.760;2022-12-07T09:19:40;22.42;40.35
67502;SHT30;54349;52.528;19.760;2022-12-07T09:22:13;22.43;40.50
67502;SHT30;54349;52.528;19.760;2022-12-07T09:24:42;22.45;40.34
67502;SHT30;54349;52.528;19.760;2022-12-07T09:27:16;22.51;40.08
67502;SHT30;54349;52.528;19.760;2022-12-07T09:29:46;22.55;39.73
67502;SHT30;54349;52.528;19.760;2022-12-07T09:32:14;22.56;39.39
67502;SHT30;54349;52.528;19.760;2022-12-07T09:34:43;22.56;39.21
67502;SHT30;54349;52.528;19.760;2022-12-07T09:37:11;22.59;39.16
67502;SHT30;54349;52.528;19.760;2022-12-07T09:39:40;22.65;39.00
67502;SHT30;54349;52.528;19.760;2022-12-07T09:44:59;22.69;38.50
67502;SHT30;54349;52.528;19.760;2022-12-07T09:47:28;22.69;38.48
67502;SHT30;54349;52.528;19.760;2022-12-07T09:50:00;22.71;38.33
67502;SHT30;54349;52.528;19.760;2022-12-07T09:52:39;22.70;38.09
67502;SHT30;54349;52.528;19.760;2022-12-07T09:55:11;22.70;38.04
67502;SHT30;54349;52.528;19.760;2022-12-07T09:57:43;22.69;37.93
67502;SHT30;54349;52.528;19.760;2022-12-07T10:00:15;22.69;37.84
67502;SHT30;54349;52.528;19.760;2022-12-07T10:02:55;22.69;37.73
67502;SHT30;54349;52.528;19.760;2022-12-07T10:05:36;22.67;37.64
67502;SHT30;54349;52.528;19.760;2022-12-07T10:08:11;22.67;37.64
67502;SHT30;54349;52.528;19.760;2022-12-07T10:10:41;22.68;37.46
67502;SHT30;54349;52.528;19.760;2022-12-07T10:13:11;22.64;37.26
67502;SHT30;54349;52.528;19.760;2022-12-07T10:15:52;22.61;37.33
67502;SHT30;54349;52.528;19.760;2022-12-07T10:18:37;22.61;37.26
67502;SHT30;54349;52.528;19.760;2022-12-07T10:21:13;22.59;37.30
67502;SHT30;54349;52.528;19.760;2022-12-07T10:24:01;22.58;37.04
67502;SHT30;54349;52.528;19.760;2022-12-07T10:32:29;22.52;37.14
67502;SHT30;54349;52.528;19.760;2022-12-07T10:35:22;22.50;36.99
67502;SHT30;54349;52.528;19.760;2022-12-07T10:37:59;22.49;36.96
67502;SHT30;54349;52.528;19.760;2022-12-07T11:00:57;22.56;36.67
67502;SHT30;54349;52.528;19.760;2022-12-07T11:20:59;22.60;36.39
67502;SHT30;54349;52.528;19.760;2022-12-07T11:24:04;22.63;36.32
67502;SHT30;54349;52.528;19.760;2022-12-07T11:34:47;22.65;36.29
67502;SHT30;54349;52.528;19.760;2022-12-07T11:37:43;22.66;36.13
67502;SHT30;54349;52.528;19.760;2022-12-07T11:40:33;22.64;36.13
67502;SHT30;54349;52.528;19.760;2022-12-07T11:46:00;22.60;36.11
67502;SHT30;54349;52.528;19.760;2022-12-07T11:48:37;22.59;36.22
67502;SHT30;54349;52.528;19.760;2022-12-07T11:51:13;22.61;36.17
67502;SHT30;54349;52.528;19.760;2022-12-07T11:53:46;22.60;36.22
67502;SHT30;54349;52.528;19.760;2022-12-07T11:56:23;22.64;36.57
67502;SHT30;54349;52.528;19.760;2022-12-07T11:59:02;22.67;36.86
67502;SHT30;54349;52.528;19.760;2022-12-07T12:01:47;22.70;37.28
67502;SHT30;54349;52.528;19.760;2022-12-07T12:06:59;22.80;37.70
67502;SHT30;54349;52.528;19.760;2022-12-07T12:09:53;22.86;37.91
67502;SHT30;54349;52.528;19.760;2022-12-07T12:21:22;22.98;38.27
67502;SHT30;54349;52.528;19.760;2022-12-07T12:24:04;23.03;38.18
67502;SHT30;54349;52.528;19.760;2022-12-07T12:26:40;23.07;38.22
67502;SHT30;54349;52.528;19.760;2022-12-07T12:29:23;23.10;38.28
67502;SHT30;54349;52.528;19.760;2022-12-07T12:32:10;23.13;38.27
67502;SHT30;54349;52.528;19.760;2022-12-07T12:42:54;23.32;38.51
67502;SHT30;54349;52.528;19.760;2022-12-07T12:45:28;23.37;38.45
67502;SHT30;54349;52.528;19.760;2022-12-07T12:50:35;23.43;38.58
67502;SHT30;54349;52.528;19.760;2022-12-07T12:58:32;23.49;38.45
67502;SHT30;54349;52.528;19.760;2022-12-07T13:04:20;23.51;38.52
67502;SHT30;54349;52.528;19.760;2022-12-07T13:06:58;23.53;38.43
67502;SHT30;54349;52.528;19.760;2022-12-07T13:09:27;23.54;38.49
67502;SHT30;54349;52.528;19.760;2022-12-07T13:12:05;23.56;38.43
67502;SHT30;54349;52.528;19.760;2022-12-07T13:14:42;23.56;38.47
67502;SHT30;54349;52.528;19.760;2022-12-07T13:19:59;23.58;38.72
67502;SHT30;54349;52.528;19.760;2022-12-07T13:24:58;23.64;39.35
67502;SHT30;54349;52.528;19.760;2022-12-07T13:27:55;23.68;39.35
67502;SHT30;54349;52.528;19.760;2022-12-07T13:30:40;23.69;39.31
67502;SHT30;54349;52.528;19.760;2022-12-07T13:33:17;23.70;39.45
67502;SHT30;54349;52.528;19.760;2022-12-07T13:35:47;23.70;39.72
67502;SHT30;54349;52.528;19.760;2022-12-07T13:38:36;23.73;39.95
67502;SHT30;54349;52.528;19.760;2022-12-07T13:43:59;23.76;40.12
67502;SHT30;54349;52.528;19.760;2022-12-07T13:46:59;23.77;40.16
67502;SHT30;54349;52.528;19.760;2022-12-07T13:49:30;23.77;40.41
67502;SHT30;54349;52.528;19.760;2022-12-07T13:54:47;23.78;40.11
67502;SHT30;54349;52.528;19.760;2022-12-07T13:57:30;23.77;40.28
67502;SHT30;54349;52.528;19.760;2022-12-07T14:00:03;23.78;40.47
67502;SHT30;54349;52.528;19.760;2022-12-07T14:03:04;23.81;40.22
67502;SHT30;54349;52.528;19.760;2022-12-07T14:05:41;23.79;39.97
67502;SHT30;54349;52.528;19.760;2022-12-07T14:16:22;23.82;40.12
67502;SHT30;54349;52.528;19.760;2022-12-07T14:18:58;23.82;39.86
67502;SHT30;54349;52.528;19.760;2022-12-07T14:21:29;23.77;39.53
67502;SHT30;54349;52.528;19.760;2022-12-07T14:24:12;23.71;39.53
67502;SHT30;54349;52.528;19.760;2022-12-07T14:26:48;23.65;39.39
67502;SHT30;54349;52.528;19.760;2022-12-07T14:29:19;23.60;39.32
67502;SHT30;54349;52.528;19.760;2022-12-07T14:31:56;23.54;39.23
67502;SHT30;54349;52.528;19.760;2022-12-07T14:34:32;23.49;39.13
67502;SHT30;54349;52.528;19.760;2022-12-07T14:37:00;23.46;39.01
67502;SHT30;54349;52.528;19.760;2022-12-07T14:39:29;23.41;38.94
67502;SHT30;54349;52.528;19.760;2022-12-07T14:41:57;23.38;38.77
67502;SHT30;54349;52.528;19.760;2022-12-07T14:44:26;23.32;38.61
67502;SHT30;54349;52.528;19.760;2022-12-07T14:47:02;23.27;38.33
67502;SHT30;54349;52.528;19.760;2022-12-07T14:49:51;23.22;38.33
67502;SHT30;54349;52.528;19.760;2022-12-07T14:52:28;23.19;38.37
67502;SHT30;54349;52.528;19.760;2022-12-07T14:55:24;23.19;38.20
67502;SHT30;54349;52.528;19.760;2022-12-07T14:57:57;23.17;38.12
67502;SHT30;54349;52.528;19.760;2022-12-07T15:00:27;23.15;38.10
67502;SHT30;54349;52.528;19.760;2022-12-07T15:02:56;23.13;38.01
67502;SHT30;54349;52.528;19.760;2022-12-07T15:05:24;23.14;37.95
67502;SHT30;54349;52.528;19.760;2022-12-07T15:07:53;23.12;37.77
67502;SHT30;54349;52.528;19.760;2022-12-07T15:10:23;23.08;37.82
67502;SHT30;54349;52.528;19.760;2022-12-07T15:13:01;23.07;37.70
67502;SHT30;54349;52.528;19.760;2022-12-07T15:15:51;23.06;37.57
67502;SHT30;54349;52.528;19.760;2022-12-07T15:18:21;23.02;37.48
67502;SHT30;54349;52.528;19.760;2022-12-07T15:20:51;22.99;37.44
67502;SHT30;54349;52.528;19.760;2022-12-07T15:23:20;22.97;37.50
67502;SHT30;54349;52.528;19.760;2022-12-07T15:25:49;22.95;37.34
67502;SHT30;54349;52.528;19.760;2022-12-07T15:28:17;22.93;37.24
67502;SHT30;54349;52.528;19.760;2022-12-07T15:30:45;22.91;37.30
67502;SHT30;54349;52.528;19.760;2022-12-07T15:33:14;22.88;37.08
67502;SHT30;54349;52.528;19.760;2022-12-07T15:35:44;22.83;36.95
67502;SHT30;54349;52.528;19.760;2022-12-07T15:38:13;22.78;37.07
67502;SHT30;54349;52.528;19.760;2022-12-07T15:40:41;22.75;37.02
67502;SHT30;54349;52.528;19.760;2022-12-07T15:43:09;22.73;37.05
67502;SHT30;54349;52.528;19.760;2022-12-07T15:45:57;22.73;36.94
67502;SHT30;54349;52.528;19.760;2022-12-07T15:48:26;22.70;36.86
67502;SHT30;54349;52.528;19.760;2022-12-07T15:51:06;22.66;36.86
67502;SHT30;54349;52.528;19.760;2022-12-07T15:53:36;22.64;36.86
67502;SHT30;54349;52.528;19.760;2022-12-07T15:56:05;22.62;36.70
67502;SHT30;54349;52.528;19.760;2022-12-07T15:58:35;22.58;36.71
67502;SHT30;54349;52.528;19.760;2022-12-07T16:01:37;22.56;36.66
67502;SHT30;54349;52.528;19.760;2022-12-07T16:03:57;22.52;36.69
67502;SHT30;54349;52.528;19.760;2022-12-07T16:06:26;22.50;36.68
67502;SHT30;54349;52.528;19.760;2022-12-07T16:08:55;22.48;36.62
67502;SHT30;54349;52.528;19.760;2022-12-07T16:11:23;22.45;36.57
67502;SHT30;54349;52.528;19.760;2022-12-07T16:13:51;22.43;36.67
67502;SHT30;54349;52.528;19.760;2022-12-07T16:16:19;22.43;36.60
67502;SHT30;54349;52.528;19.760;2022-12-07T16:18:50;22.41;36.51
67502;SHT30;54349;52.528;19.760;2022-12-07T16:21:19;22.37;36.52
67502;SHT30;54349;52.528;19.760;2022-12-07T16:23:52;22.36;36.49
67502;SHT30;54349;52.528;19.760;2022-12-07T16:26:21;22.33;36.39
67502;SHT30;54349;52.528;19.760;2022-12-07T16:28:50;22.29;36.33
67502;SHT30;54349;52.528;19.760;2022-12-07T16:31:22;22.24;36.31
67502;SHT30;54349;52.528;19.760;2022-12-07T16:33:54;22.20;36.42
67502;SHT30;54349;52.528;19.760;2022-12-07T16:36:25;22.21;36.43
67502;SHT30;54349;52.528;19.760;2022-12-07T16:39:14;22.19;36.30
67502;SHT30;54349;52.528;19.760;2022-12-07T16:41:43;22.20;36.48
67502;SHT30;54349;52.528;19.760;2022-12-07T16:44:12;22.25;36.36
67502;SHT30;54349;52.528;19.760;2022-12-07T16:46:41;22.26;36.32
67502;SHT30;54349;52.528;19.760;2022-12-07T16:49:11;22.25;36.18
67502;SHT30;54349;52.528;19.760;2022-12-07T16:51:41;22.23;36.22
67502;SHT30;54349;52.528;19.760;2022-12-07T16:54:12;22.24;36.24
67502;SHT30;54349;52.528;19.760;2022-12-07T16:56:40;22.24;36.09
67502;SHT30;54349;52.528;19.760;2022-12-07T16:59:09;22.21;36.10
67502;SHT30;54349;52.528;19.760;2022-12-07T17:01:37;22.20;36.13
67502;SHT30;54349;52.528;19.760;2022-12-07T17:04:05;22.21;36.11
67502;SHT30;54349;52.528;19.760;2022-12-07T17:06:35;22.22;36.02
67502;SHT30;54349;52.528;19.760;2022-12-07T17:09:03;22.22;36.07
67502;SHT30;54349;52.528;19.760;2022-12-07T17:11:36;22.22;35.97
67502;SHT30;54349;52.528;19.760;2022-12-07T17:14:04;22.22;36.02
67502;SHT30;54349;52.528;19.760;2022-12-07T17:16:51;22.25;35.94
67502;SHT30;54349;52.528;19.760;2022-12-07T17:19:20;22.26;35.89
67502;SHT30;54349;52.528;19.760;2022-12-07T17:21:48;22.27;35.92
67502;SHT30;54349;52.528;19.760;2022-12-07T17:24:18;22.29;35.87
67502;SHT30;54349;52.528;19.760;2022-12-07T17:26:46;22.29;35.86
67502;SHT30;54349;52.528;19.760;2022-12-07T17:29:15;22.31;35.81
67502;SHT30;54349;52.528;19.760;2022-12-07T17:31:46;22.30;36.29
67502;SHT30;54349;52.528;19.760;2022-12-07T17:34:18;22.30;36.61
67502;SHT30;54349;52.528;19.760;2022-12-07T17:36:46;22.26;37.22
67502;SHT30;54349;52.528;19.760;2022-12-07T17:39:15;22.26;37.66
67502;SHT30;54349;52.528;19.760;2022-12-07T17:41:46;22.26;37.93
67502;SHT30;54349;52.528;19.760;2022-12-07T17:44:33;22.23;38.30
67502;SHT30;54349;52.528;19.760;2022-12-07T17:47:01;22.23;38.44
67502;SHT30;54349;52.528;19.760;2022-12-07T17:49:31;22.21;38.48
67502;SHT30;54349;52.528;19.760;2022-12-07T17:51:59;22.19;38.82
67502;SHT30;54349;52.528;19.760;2022-12-07T17:54:46;22.21;38.91
67502;SHT30;54349;52.528;19.760;2022-12-07T17:57:14;22.22;39.11
67502;SHT30;54349;52.528;19.760;2022-12-07T17:59:42;22.25;39.04
67502;SHT30;54349;52.528;19.760;2022-12-07T18:02:11;22.24;39.08
67502;SHT30;54349;52.528;19.760;2022-12-07T18:04:40;22.25;39.14
67502;SHT30;54349;52.528;19.760;2022-12-07T18:07:09;22.27;39.17
67502;SHT30;54349;52.528;19.760;2022-12-07T18:09:38;22.27;39.09
67502;SHT30;54349;52.528;19.760;2022-12-07T18:12:06;22.26;39.10
67502;SHT30;54349;52.528;19.760;2022-12-07T18:14:35;22.25;39.18
67502;SHT30;54349;52.528;19.760;2022-12-07T18:17:03;22.26;39.40
67502;SHT30;54349;52.528;19.760;2022-12-07T18:19:33;22.30;39.52